sensor_id;sensor_type;location;lat;lon;timestamp;P1;durP1;ratioP1;P2;durP2;ratioP2
60612;SDS011;46443;59.792;17.626;2024-02-26T00:00:34;8.55;;;5.18;;
60612;SDS011;46443;59.792;17.626;2024-02-26T00:03:00;10.00;;;5.15;;
60612;SDS011;46443;59.792;17.626;2024-02-26T00:05:26;10.60;;;5.78;;
60612;SDS011;46443;59.792;17.626;2024-02-26T00:07:52;11.25;;;5.50;;
60612;SDS011;46443;59.792;17.626;2024-02-26T00:10:19;11.90;;;5.28;;
60612;SDS011;46443;59.792;17.626;2024-02-26T00:12:45;9.98;;;5.30;;
60612;SDS011;46443;59.792;17.626;2024-02-26T00:15:11;11.43;;;5.20;;
60612;SDS011;46443;59.792;17.626;2024-02-26T00:17:37;13.30;;;5.43;;
60612;SDS011;46443;59.792;17.626;2024-02-26T00:20:03;9.85;;;4.97;;
60612;SDS011;46443;59.792;17.626;2024-02-26T00:22:33;8.80;;;5.35;;
60612;SDS011;46443;59.792;17.626;2024-02-26T00:24:59;8.98;;;5.15;;
60612;SDS011;46443;59.792;17.626;2024-02-26T00:27:25;8.90;;;5.30;;
60612;SDS011;46443;59.792;17.626;2024-02-26T00:29:51;12.27;;;5.90;;
60612;SDS011;46443;59.792;17.626;2024-02-26T00:32:17;10.48;;;5.75;;
60612;SDS011;46443;59.792;17.626;2024-02-26T00:34:43;11.73;;;5.68;;
60612;SDS011;46443;59.792;17.626;2024-02-26T00:37:09;11.93;;;6.10;;
60612;SDS011;46443;59.792;17.626;2024-02-26T00:39:36;10.93;;;5.90;;
60612;SDS011;46443;59.792;17.626;2024-02-26T00:42:02;10.20;;;5.50;;
60612;SDS011;46443;59.792;17.626;2024-02-26T00:44:28;10.25;;;6.00;;
60612;SDS011;46443;59.792;17.626;2024-02-26T00:46:54;14.55;;;5.90;;
60612;SDS011;46443;59.792;17.626;2024-02-26T00:49:20;13.57;;;6.90;;
60612;SDS011;46443;59.792;17.626;2024-02-26T00:51:46;20.40;;;7.70;;
60612;SDS011;46443;59.792;17.626;2024-02-26T00:54:12;12.45;;;6.20;;
60612;SDS011;46443;59.792;17.626;2024-02-26T00:56:38;17.63;;;6.88;;
60612;SDS011;46443;59.792;17.626;2024-02-26T00:59:04;12.63;;;6.30;;
60612;SDS011;46443;59.792;17.626;2024-02-26T01:01:31;16.25;;;6.70;;
60612;SDS011;46443;59.792;17.626;2024-02-26T01:03:57;18.10;;;7.85;;
60612;SDS011;46443;59.792;17.626;2024-02-26T01:06:23;14.52;;;6.40;;
60612;SDS011;46443;59.792;17.626;2024-02-26T01:08:49;13.32;;;6.57;;
60612;SDS011;46443;59.792;17.626;2024-02-26T01:11:15;11.55;;;6.15;;
60612;SDS011;46443;59.792;17.626;2024-02-26T01:13:41;11.23;;;6.28;;
60612;SDS011;46443;59.792;17.626;2024-02-26T01:16:07;14.23;;;6.57;;
60612;SDS011;46443;59.792;17.626;2024-02-26T01:18:33;12.73;;;6.40;;
60612;SDS011;46443;59.792;17.626;2024-02-26T01:20:59;13.15;;;6.43;;
60612;SDS011;46443;59.792;17.626;2024-02-26T01:23:25;13.63;;;6.18;;
60612;SDS011;46443;59.792;17.626;2024-02-26T01:25:52;13.75;;;7.10;;
60612;SDS011;46443;59.792;17.626;2024-02-26T01:28:18;13.63;;;6.32;;
60612;SDS011;46443;59.792;17.626;2024-02-26T01:30:44;14.23;;;7.32;;
60612;SDS011;46443;59.792;17.626;2024-02-26T01:33:10;16.70;;;8.18;;
60612;SDS011;46443;59.792;17.626;2024-02-26T01:35:36;15.07;;;6.55;;
60612;SDS011;46443;59.792;17.626;2024-02-26T01:38:02;14.45;;;7.25;;
60612;SDS011;46443;59.792;17.626;2024-02-26T01:40:28;11.93;;;6.57;;
60612;SDS011;46443;59.792;17.626;2024-02-26T01:42:55;17.38;;;7.10;;
60612;SDS011;46443;59.792;17.626;2024-02-26T01:45:21;12.40;;;6.45;;
60612;SDS011;46443;59.792;17.626;2024-02-26T01:47:52;19.50;;;7.05;;
60612;SDS011;46443;59.792;17.626;2024-02-26T01:50:19;14.32;;;6.88;;
60612;SDS011;46443;59.792;17.626;2024-02-26T01:52:47;10.63;;;6.03;;
60612;SDS011;46443;59.792;17.626;2024-02-26T01:55:13;14.73;;;6.35;;
60612;SDS011;46443;59.792;17.626;2024-02-26T01:57:40;15.00;;;6.60;;
60612;SDS011;46443;59.792;17.626;2024-02-26T02:00:07;13.63;;;6.40;;
60612;SDS011;46443;59.792;17.626;2024-02-26T02:02:33;12.20;;;6.27;;
60612;SDS011;46443;59.792;17.626;2024-02-26T02:04:59;10.53;;;5.77;;
60612;SDS011;46443;59.792;17.626;2024-02-26T02:07:26;14.75;;;6.50;;
60612;SDS011;46443;59.792;17.626;2024-02-26T02:09:52;14.63;;;6.17;;
60612;SDS011;46443;59.792;17.626;2024-02-26T02:12:19;13.43;;;6.20;;
60612;SDS011;46443;59.792;17.626;2024-02-26T02:14:45;11.97;;;7.13;;
60612;SDS011;46443;59.792;17.626;2024-02-26T02:17:11;16.33;;;7.53;;
60612;SDS011;46443;59.792;17.626;2024-02-26T02:19:37;15.13;;;7.40;;
60612;SDS011;46443;59.792;17.626;2024-02-26T02:22:03;16.10;;;7.27;;
60612;SDS011;46443;59.792;17.626;2024-02-26T02:24:29;12.63;;;7.13;;
60612;SDS011;46443;59.792;17.626;2024-02-26T02:26:56;15.97;;;7.57;;
60612;SDS011;46443;59.792;17.626;2024-02-26T02:29:22;13.77;;;8.00;;
60612;SDS011;46443;59.792;17.626;2024-02-26T02:31:48;16.40;;;8.33;;
60612;SDS011;46443;59.792;17.626;2024-02-26T02:34:14;17.83;;;8.75;;
60612;SDS011;46443;59.792;17.626;2024-02-26T02:36:53;22.92;;;9.10;;
60612;SDS011;46443;59.792;17.626;2024-02-26T02:39:19;21.08;;;9.32;;
60612;SDS011;46443;59.792;17.626;2024-02-26T02:41:46;20.38;;;9.95;;
60612;SDS011;46443;59.792;17.626;2024-02-26T02:44:12;20.73;;;9.30;;
60612;SDS011;46443;59.792;17.626;2024-02-26T02:46:38;16.55;;;8.80;;
60612;SDS011;46443;59.792;17.626;2024-02-26T02:49:07;18.25;;;8.13;;
60612;SDS011;46443;59.792;17.626;2024-02-26T02:51:34;17.15;;;8.32;;
60612;SDS011;46443;59.792;17.626;2024-02-26T02:54:00;14.30;;;7.83;;
60612;SDS011;46443;59.792;17.626;2024-02-26T02:56:26;21.27;;;7.50;;
60612;SDS011;46443;59.792;17.626;2024-02-26T02:58:52;16.57;;;8.10;;
60612;SDS011;46443;59.792;17.626;2024-02-26T03:01:18;19.38;;;8.75;;
60612;SDS011;46443;59.792;17.626;2024-02-26T03:03:44;16.83;;;8.13;;
60612;SDS011;46443;59.792;17.626;2024-02-26T03:06:10;20.83;;;9.00;;
60612;SDS011;46443;59.792;17.626;2024-02-26T03:08:36;22.03;;;9.50;;
60612;SDS011;46443;59.792;17.626;2024-02-26T03:11:04;15.40;;;9.67;;
60612;SDS011;46443;59.792;17.626;2024-02-26T03:13:30;21.47;;;9.67;;
60612;SDS011;46443;59.792;17.626;2024-02-26T03:15:56;21.00;;;9.67;;
60612;SDS011;46443;59.792;17.626;2024-02-26T03:18:23;21.57;;;10.17;;
60612;SDS011;46443;59.792;17.626;2024-02-26T03:20:49;22.57;;;10.33;;
60612;SDS011;46443;59.792;17.626;2024-02-26T03:23:15;28.17;;;10.40;;
60612;SDS011;46443;59.792;17.626;2024-02-26T03:25:45;26.13;;;10.87;;
60612;SDS011;46443;59.792;17.626;2024-02-26T03:28:12;20.67;;;10.17;;
60612;SDS011;46443;59.792;17.626;2024-02-26T03:30:38;23.43;;;10.57;;
60612;SDS011;46443;59.792;17.626;2024-02-26T03:33:04;23.23;;;9.90;;
60612;SDS011;46443;59.792;17.626;2024-02-26T03:35:31;21.67;;;10.73;;
60612;SDS011;46443;59.792;17.626;2024-02-26T03:37:57;20.90;;;9.90;;
60612;SDS011;46443;59.792;17.626;2024-02-26T03:40:23;22.87;;;11.03;;
60612;SDS011;46443;59.792;17.626;2024-02-26T03:42:49;22.67;;;10.68;;
60612;SDS011;46443;59.792;17.626;2024-02-26T03:45:17;27.60;;;11.83;;
60612;SDS011;46443;59.792;17.626;2024-02-26T03:47:43;28.90;;;11.38;;
60612;SDS011;46443;59.792;17.626;2024-02-26T03:50:09;24.47;;;10.93;;
60612;SDS011;46443;59.792;17.626;2024-02-26T03:52:36;22.65;;;10.18;;
60612;SDS011;46443;59.792;17.626;2024-02-26T03:55:02;22.93;;;11.00;;
60612;SDS011;46443;59.792;17.626;2024-02-26T03:57:28;21.07;;;9.93;;
60612;SDS011;46443;59.792;17.626;2024-02-26T03:59:54;22.95;;;10.40;;
60612;SDS011;46443;59.792;17.626;2024-02-26T04:02:21;21.03;;;10.03;;
60612;SDS011;46443;59.792;17.626;2024-02-26T04:04:48;23.80;;;10.57;;
60612;SDS011;46443;59.792;17.626;2024-02-26T04:07:14;24.87;;;9.80;;
60612;SDS011;46443;59.792;17.626;2024-02-26T04:09:40;20.23;;;9.73;;
60612;SDS011;46443;59.792;17.626;2024-02-26T04:12:06;21.60;;;9.20;;
60612;SDS011;46443;59.792;17.626;2024-02-26T04:14:32;23.70;;;9.50;;
60612;SDS011;46443;59.792;17.626;2024-02-26T04:16:58;22.30;;;9.83;;
60612;SDS011;46443;59.792;17.626;2024-02-26T04:19:24;21.93;;;10.13;;
60612;SDS011;46443;59.792;17.626;2024-02-26T04:21:50;20.43;;;9.00;;
60612;SDS011;46443;59.792;17.626;2024-02-26T04:24:17;19.13;;;9.00;;
60612;SDS011;46443;59.792;17.626;2024-02-26T04:26:43;18.43;;;8.77;;
60612;SDS011;46443;59.792;17.626;2024-02-26T04:29:09;17.07;;;8.77;;
60612;SDS011;46443;59.792;17.626;2024-02-26T04:31:36;20.87;;;10.27;;
60612;SDS011;46443;59.792;17.626;2024-02-26T04:34:03;16.33;;;8.53;;
60612;SDS011;46443;59.792;17.626;2024-02-26T04:36:29;23.97;;;9.83;;
60612;SDS011;46443;59.792;17.626;2024-02-26T04:38:55;24.00;;;9.83;;
60612;SDS011;46443;59.792;17.626;2024-02-26T04:41:21;20.70;;;9.30;;
60612;SDS011;46443;59.792;17.626;2024-02-26T04:43:47;16.80;;;8.30;;
60612;SDS011;46443;59.792;17.626;2024-02-26T04:46:13;17.97;;;8.23;;
60612;SDS011;46443;59.792;17.626;2024-02-26T04:48:39;17.57;;;9.13;;
60612;SDS011;46443;59.792;17.626;2024-02-26T04:51:07;19.37;;;8.63;;
60612;SDS011;46443;59.792;17.626;2024-02-26T04:53:33;18.17;;;9.77;;
60612;SDS011;46443;59.792;17.626;2024-02-26T04:55:59;15.53;;;8.93;;
60612;SDS011;46443;59.792;17.626;2024-02-26T04:58:25;18.97;;;8.77;;
60612;SDS011;46443;59.792;17.626;2024-02-26T05:00:51;16.17;;;9.17;;
60612;SDS011;46443;59.792;17.626;2024-02-26T05:03:17;17.80;;;8.40;;
60612;SDS011;46443;59.792;17.626;2024-02-26T05:05:43;19.77;;;9.47;;
60612;SDS011;46443;59.792;17.626;2024-02-26T05:08:10;21.50;;;10.40;;
60612;SDS011;46443;59.792;17.626;2024-02-26T05:10:37;20.37;;;9.90;;
60612;SDS011;46443;59.792;17.626;2024-02-26T05:13:06;29.08;;;12.85;;
60612;SDS011;46443;59.792;17.626;2024-02-26T05:15:32;25.40;;;10.75;;
60612;SDS011;46443;59.792;17.626;2024-02-26T05:17:58;25.67;;;10.63;;
60612;SDS011;46443;59.792;17.626;2024-02-26T05:20:24;25.55;;;11.38;;
60612;SDS011;46443;59.792;17.626;2024-02-26T05:22:50;23.43;;;10.33;;
60612;SDS011;46443;59.792;17.626;2024-02-26T05:25:17;23.87;;;10.77;;
60612;SDS011;46443;59.792;17.626;2024-02-26T05:27:43;22.77;;;9.53;;
60612;SDS011;46443;59.792;17.626;2024-02-26T05:30:10;24.37;;;11.07;;
60612;SDS011;46443;59.792;17.626;2024-02-26T05:32:36;26.20;;;12.20;;
60612;SDS011;46443;59.792;17.626;2024-02-26T05:35:02;27.30;;;11.77;;
60612;SDS011;46443;59.792;17.626;2024-02-26T05:37:29;25.87;;;10.93;;
60612;SDS011;46443;59.792;17.626;2024-02-26T05:39:55;28.80;;;12.30;;
60612;SDS011;46443;59.792;17.626;2024-02-26T05:42:21;24.43;;;10.43;;
60612;SDS011;46443;59.792;17.626;2024-02-26T05:44:47;21.77;;;11.13;;
60612;SDS011;46443;59.792;17.626;2024-02-26T05:47:13;23.23;;;11.10;;
60612;SDS011;46443;59.792;17.626;2024-02-26T05:49:39;20.50;;;9.40;;
60612;SDS011;46443;59.792;17.626;2024-02-26T05:52:05;23.37;;;10.03;;
60612;SDS011;46443;59.792;17.626;2024-02-26T05:54:31;20.73;;;9.50;;
60612;SDS011;46443;59.792;17.626;2024-02-26T05:56:58;21.67;;;9.60;;
60612;SDS011;46443;59.792;17.626;2024-02-26T05:59:24;19.10;;;9.27;;
60612;SDS011;46443;59.792;17.626;2024-02-26T06:01:50;19.23;;;9.87;;
60612;SDS011;46443;59.792;17.626;2024-02-26T06:04:16;19.13;;;10.03;;
60612;SDS011;46443;59.792;17.626;2024-02-26T06:06:43;25.00;;;10.83;;
60612;SDS011;46443;59.792;17.626;2024-02-26T06:09:10;27.57;;;11.33;;
60612;SDS011;46443;59.792;17.626;2024-02-26T06:11:36;21.67;;;10.03;;
60612;SDS011;46443;59.792;17.626;2024-02-26T06:14:03;23.47;;;10.97;;
60612;SDS011;46443;59.792;17.626;2024-02-26T06:16:29;27.30;;;11.07;;
60612;SDS011;46443;59.792;17.626;2024-02-26T06:18:55;25.10;;;12.13;;
60612;SDS011;46443;59.792;17.626;2024-02-26T06:21:21;24.20;;;11.60;;
60612;SDS011;46443;59.792;17.626;2024-02-26T06:23:47;27.70;;;12.73;;
60612;SDS011;46443;59.792;17.626;2024-02-26T06:26:15;26.33;;;12.03;;
60612;SDS011;46443;59.792;17.626;2024-02-26T06:28:41;27.50;;;13.10;;
60612;SDS011;46443;59.792;17.626;2024-02-26T06:31:07;32.60;;;13.20;;
60612;SDS011;46443;59.792;17.626;2024-02-26T06:33:33;26.70;;;13.17;;
60612;SDS011;46443;59.792;17.626;2024-02-26T06:36:00;27.03;;;12.07;;
60612;SDS011;46443;59.792;17.626;2024-02-26T06:38:26;22.80;;;12.70;;
60612;SDS011;46443;59.792;17.626;2024-02-26T06:40:52;27.90;;;12.40;;
60612;SDS011;46443;59.792;17.626;2024-02-26T06:43:18;28.47;;;12.13;;
60612;SDS011;46443;59.792;17.626;2024-02-26T06:45:44;25.27;;;12.00;;
60612;SDS011;46443;59.792;17.626;2024-02-26T06:48:10;31.27;;;13.47;;
60612;SDS011;46443;59.792;17.626;2024-02-26T06:50:36;24.90;;;11.83;;
60612;SDS011;46443;59.792;17.626;2024-02-26T06:53:02;29.70;;;13.93;;
60612;SDS011;46443;59.792;17.626;2024-02-26T06:55:28;25.50;;;12.63;;
60612;SDS011;46443;59.792;17.626;2024-02-26T06:57:54;24.67;;;11.70;;
60612;SDS011;46443;59.792;17.626;2024-02-26T07:00:20;27.73;;;12.67;;
60612;SDS011;46443;59.792;17.626;2024-02-26T07:02:46;28.47;;;13.50;;
60612;SDS011;46443;59.792;17.626;2024-02-26T07:05:12;23.77;;;11.63;;
60612;SDS011;46443;59.792;17.626;2024-02-26T07:07:38;23.20;;;11.93;;
60612;SDS011;46443;59.792;17.626;2024-02-26T07:10:05;21.20;;;11.27;;
60612;SDS011;46443;59.792;17.626;2024-02-26T07:12:32;20.27;;;10.10;;
60612;SDS011;46443;59.792;17.626;2024-02-26T07:14:58;21.93;;;10.97;;
60612;SDS011;46443;59.792;17.626;2024-02-26T07:17:24;25.13;;;11.47;;
60612;SDS011;46443;59.792;17.626;2024-02-26T07:19:50;21.47;;;10.60;;
60612;SDS011;46443;59.792;17.626;2024-02-26T07:22:16;26.23;;;11.30;;
60612;SDS011;46443;59.792;17.626;2024-02-26T07:24:42;20.40;;;9.50;;
60612;SDS011;46443;59.792;17.626;2024-02-26T07:27:08;18.37;;;9.80;;
60612;SDS011;46443;59.792;17.626;2024-02-26T07:29:34;18.47;;;10.13;;
60612;SDS011;46443;59.792;17.626;2024-02-26T07:32:01;18.00;;;9.23;;
60612;SDS011;46443;59.792;17.626;2024-02-26T07:34:27;25.17;;;10.17;;
60612;SDS011;46443;59.792;17.626;2024-02-26T07:36:57;16.27;;;8.67;;
60612;SDS011;46443;59.792;17.626;2024-02-26T07:39:23;17.97;;;9.17;;
60612;SDS011;46443;59.792;17.626;2024-02-26T07:41:49;17.47;;;9.10;;
60612;SDS011;46443;59.792;17.626;2024-02-26T07:44:17;18.50;;;9.33;;
60612;SDS011;46443;59.792;17.626;2024-02-26T07:46:43;14.87;;;7.93;;
60612;SDS011;46443;59.792;17.626;2024-02-26T07:49:10;17.07;;;9.07;;
60612;SDS011;46443;59.792;17.626;2024-02-26T07:51:36;17.50;;;8.53;;
60612;SDS011;46443;59.792;17.626;2024-02-26T07:54:02;14.40;;;7.47;;
60612;SDS011;46443;59.792;17.626;2024-02-26T07:56:28;13.43;;;7.77;;
60612;SDS011;46443;59.792;17.626;2024-02-26T07:58:54;15.43;;;7.83;;
60612;SDS011;46443;59.792;17.626;2024-02-26T08:01:20;15.00;;;8.00;;
60612;SDS011;46443;59.792;17.626;2024-02-26T08:03:46;13.03;;;7.40;;
60612;SDS011;46443;59.792;17.626;2024-02-26T08:06:12;12.53;;;7.00;;
60612;SDS011;46443;59.792;17.626;2024-02-26T08:08:38;13.27;;;7.13;;
60612;SDS011;46443;59.792;17.626;2024-02-26T08:11:04;12.23;;;7.07;;
60612;SDS011;46443;59.792;17.626;2024-02-26T08:13:30;14.17;;;8.10;;
60612;SDS011;46443;59.792;17.626;2024-02-26T08:15:56;12.47;;;7.03;;
60612;SDS011;46443;59.792;17.626;2024-02-26T08:18:23;12.83;;;7.23;;
60612;SDS011;46443;59.792;17.626;2024-02-26T08:20:50;13.40;;;6.90;;
60612;SDS011;46443;59.792;17.626;2024-02-26T08:23:16;13.80;;;7.17;;
60612;SDS011;46443;59.792;17.626;2024-02-26T08:25:42;12.53;;;6.67;;
60612;SDS011;46443;59.792;17.626;2024-02-26T08:28:08;12.27;;;6.20;;
60612;SDS011;46443;59.792;17.626;2024-02-26T08:30:36;12.40;;;7.10;;
60612;SDS011;46443;59.792;17.626;2024-02-26T08:33:02;10.27;;;6.23;;
60612;SDS011;46443;59.792;17.626;2024-02-26T08:35:28;12.37;;;6.77;;
60612;SDS011;46443;59.792;17.626;2024-02-26T08:37:54;13.60;;;6.90;;
60612;SDS011;46443;59.792;17.626;2024-02-26T08:40:20;13.77;;;7.03;;
60612;SDS011;46443;59.792;17.626;2024-02-26T08:42:46;10.57;;;6.47;;
60612;SDS011;46443;59.792;17.626;2024-02-26T08:45:12;11.13;;;6.40;;
60612;SDS011;46443;59.792;17.626;2024-02-26T08:47:38;8.53;;;5.50;;
60612;SDS011;46443;59.792;17.626;2024-02-26T08:50:05;9.27;;;6.33;;
60612;SDS011;46443;59.792;17.626;2024-02-26T08:52:31;10.83;;;5.90;;
60612;SDS011;46443;59.792;17.626;2024-02-26T08:54:58;12.13;;;6.40;;
60612;SDS011;46443;59.792;17.626;2024-02-26T08:57:24;9.87;;;5.93;;
60612;SDS011;46443;59.792;17.626;2024-02-26T08:59:52;12.00;;;5.90;;
60612;SDS011;46443;59.792;17.626;2024-02-26T09:02:18;10.80;;;5.67;;
60612;SDS011;46443;59.792;17.626;2024-02-26T09:04:45;11.00;;;6.13;;
60612;SDS011;46443;59.792;17.626;2024-02-26T09:07:11;12.30;;;6.17;;
60612;SDS011;46443;59.792;17.626;2024-02-26T09:09:37;11.70;;;6.13;;
60612;SDS011;46443;59.792;17.626;2024-02-26T09:12:03;12.93;;;6.20;;
60612;SDS011;46443;59.792;17.626;2024-02-26T09:14:29;10.63;;;5.73;;
60612;SDS011;46443;59.792;17.626;2024-02-26T09:16:55;9.77;;;6.10;;
60612;SDS011;46443;59.792;17.626;2024-02-26T09:19:21;10.23;;;6.13;;
60612;SDS011;46443;59.792;17.626;2024-02-26T09:21:47;12.20;;;6.33;;
60612;SDS011;46443;59.792;17.626;2024-02-26T09:24:13;11.07;;;6.43;;
60612;SDS011;46443;59.792;17.626;2024-02-26T09:26:40;13.67;;;6.67;;
60612;SDS011;46443;59.792;17.626;2024-02-26T09:29:06;11.90;;;6.67;;
60612;SDS011;46443;59.792;17.626;2024-02-26T09:31:33;11.60;;;6.67;;
60612;SDS011;46443;59.792;17.626;2024-02-26T09:33:59;11.20;;;6.33;;
60612;SDS011;46443;59.792;17.626;2024-02-26T09:36:25;11.07;;;6.03;;
60612;SDS011;46443;59.792;17.626;2024-02-26T09:38:52;13.37;;;6.80;;
60612;SDS011;46443;59.792;17.626;2024-02-26T09:41:18;11.13;;;6.00;;
60612;SDS011;46443;59.792;17.626;2024-02-26T09:43:44;12.60;;;6.97;;
60612;SDS011;46443;59.792;17.626;2024-02-26T09:46:14;11.35;;;6.63;;
60612;SDS011;46443;59.792;17.626;2024-02-26T09:48:42;12.63;;;6.90;;
60612;SDS011;46443;59.792;17.626;2024-02-26T09:51:10;12.57;;;6.83;;
60612;SDS011;46443;59.792;17.626;2024-02-26T09:53:37;12.40;;;6.67;;
60612;SDS011;46443;59.792;17.626;2024-02-26T09:56:07;11.53;;;7.10;;
60612;SDS011;46443;59.792;17.626;2024-02-26T09:58:33;12.47;;;6.50;;
60612;SDS011;46443;59.792;17.626;2024-02-26T10:01:00;12.20;;;6.93;;
60612;SDS011;46443;59.792;17.626;2024-02-26T10:03:31;15.52;;;8.15;;
60612;SDS011;46443;59.792;17.626;2024-02-26T10:05:57;14.73;;;7.83;;
60612;SDS011;46443;59.792;17.626;2024-02-26T10:08:24;17.80;;;8.67;;
60612;SDS011;46443;59.792;17.626;2024-02-26T10:10:50;15.70;;;9.30;;
60612;SDS011;46443;59.792;17.626;2024-02-26T10:13:17;18.00;;;9.00;;
60612;SDS011;46443;59.792;17.626;2024-02-26T10:15:44;17.60;;;8.73;;
60612;SDS011;46443;59.792;17.626;2024-02-26T10:18:11;16.23;;;9.37;;
60612;SDS011;46443;59.792;17.626;2024-02-26T10:20:37;16.37;;;9.47;;
60612;SDS011;46443;59.792;17.626;2024-02-26T10:23:04;17.03;;;8.90;;
60612;SDS011;46443;59.792;17.626;2024-02-26T10:25:30;16.93;;;9.00;;
60612;SDS011;46443;59.792;17.626;2024-02-26T10:27:59;17.40;;;10.00;;
60612;SDS011;46443;59.792;17.626;2024-02-26T10:30:29;17.17;;;9.90;;
60612;SDS011;46443;59.792;17.626;2024-02-26T10:32:56;17.60;;;9.80;;
60612;SDS011;46443;59.792;17.626;2024-02-26T10:35:23;17.20;;;9.30;;
60612;SDS011;46443;59.792;17.626;2024-02-26T10:37:49;17.70;;;9.73;;
60612;SDS011;46443;59.792;17.626;2024-02-26T10:40:16;16.80;;;9.20;;
60612;SDS011;46443;59.792;17.626;2024-02-26T10:42:42;18.70;;;9.40;;
60612;SDS011;46443;59.792;17.626;2024-02-26T10:45:10;19.93;;;9.67;;
60612;SDS011;46443;59.792;17.626;2024-02-26T10:47:36;17.73;;;9.13;;
60612;SDS011;46443;59.792;17.626;2024-02-26T10:50:03;16.83;;;8.67;;
60612;SDS011;46443;59.792;17.626;2024-02-26T10:52:33;15.83;;;8.20;;
60612;SDS011;46443;59.792;17.626;2024-02-26T10:55:03;18.20;;;8.82;;
60612;SDS011;46443;59.792;17.626;2024-02-26T10:57:34;16.27;;;8.53;;
60612;SDS011;46443;59.792;17.626;2024-02-26T11:00:02;16.17;;;8.90;;
60612;SDS011;46443;59.792;17.626;2024-02-26T11:02:34;15.48;;;8.25;;
60612;SDS011;46443;59.792;17.626;2024-02-26T11:05:04;14.77;;;8.45;;
60612;SDS011;46443;59.792;17.626;2024-02-26T11:07:31;14.30;;;8.02;;
60612;SDS011;46443;59.792;17.626;2024-02-26T11:10:00;13.40;;;7.70;;
60612;SDS011;46443;59.792;17.626;2024-02-26T11:12:30;15.23;;;8.50;;
60612;SDS011;46443;59.792;17.626;2024-02-26T11:17:26;19.13;;;9.20;;
60612;SDS011;46443;59.792;17.626;2024-02-26T11:19:55;17.58;;;9.35;;
60612;SDS011;46443;59.792;17.626;2024-02-26T11:22:23;16.70;;;9.00;;
60612;SDS011;46443;59.792;17.626;2024-02-26T11:24:51;16.40;;;9.17;;
60612;SDS011;46443;59.792;17.626;2024-02-26T11:27:18;17.87;;;9.63;;
60612;SDS011;46443;59.792;17.626;2024-02-26T11:29:47;18.53;;;10.17;;
60612;SDS011;46443;59.792;17.626;2024-02-26T11:32:14;16.85;;;9.52;;
60612;SDS011;46443;59.792;17.626;2024-02-26T11:34:40;17.40;;;9.40;;
60612;SDS011;46443;59.792;17.626;2024-02-26T11:37:24;17.37;;;9.90;;
60612;SDS011;46443;59.792;17.626;2024-02-26T11:39:51;16.83;;;9.80;;
60612;SDS011;46443;59.792;17.626;2024-02-26T11:42:18;16.87;;;9.03;;
60612;SDS011;46443;59.792;17.626;2024-02-26T11:44:48;15.60;;;9.13;;
60612;SDS011;46443;59.792;17.626;2024-02-26T11:47:22;14.93;;;9.37;;
60612;SDS011;46443;59.792;17.626;2024-02-26T11:49:48;17.80;;;9.80;;
60612;SDS011;46443;59.792;17.626;2024-02-26T11:52:15;14.83;;;9.70;;
60612;SDS011;46443;59.792;17.626;2024-02-26T12:00:13;13.07;;;7.50;;
60612;SDS011;46443;59.792;17.626;2024-02-26T12:02:45;11.83;;;7.80;;
60612;SDS011;46443;59.792;17.626;2024-02-26T12:07:41;12.70;;;7.60;;
60612;SDS011;46443;59.792;17.626;2024-02-26T12:12:54;12.67;;;7.77;;
60612;SDS011;46443;59.792;17.626;2024-02-26T12:15:22;13.30;;;8.03;;
60612;SDS011;46443;59.792;17.626;2024-02-26T12:17:48;12.20;;;7.10;;
60612;SDS011;46443;59.792;17.626;2024-02-26T12:20:15;11.03;;;7.97;;
60612;SDS011;46443;59.792;17.626;2024-02-26T12:22:46;13.43;;;8.73;;
60612;SDS011;46443;59.792;17.626;2024-02-26T12:25:13;13.00;;;7.73;;
60612;SDS011;46443;59.792;17.626;2024-02-26T12:27:39;15.17;;;8.27;;
60612;SDS011;46443;59.792;17.626;2024-02-26T12:30:06;14.27;;;8.40;;
60612;SDS011;46443;59.792;17.626;2024-02-26T12:32:32;11.83;;;7.93;;
60612;SDS011;46443;59.792;17.626;2024-02-26T12:34:58;13.40;;;8.07;;
60612;SDS011;46443;59.792;17.626;2024-02-26T12:37:25;15.67;;;9.13;;
60612;SDS011;46443;59.792;17.626;2024-02-26T12:39:51;15.17;;;8.40;;
60612;SDS011;46443;59.792;17.626;2024-02-26T12:42:17;16.37;;;8.80;;
60612;SDS011;46443;59.792;17.626;2024-02-26T12:44:46;14.63;;;9.30;;
60612;SDS011;46443;59.792;17.626;2024-02-26T12:47:12;15.57;;;9.17;;
60612;SDS011;46443;59.792;17.626;2024-02-26T12:49:42;13.30;;;8.00;;
60612;SDS011;46443;59.792;17.626;2024-02-26T12:52:09;16.40;;;9.17;;
60612;SDS011;46443;59.792;17.626;2024-02-26T12:54:36;13.47;;;8.67;;
60612;SDS011;46443;59.792;17.626;2024-02-26T12:57:06;15.67;;;8.53;;
60612;SDS011;46443;59.792;17.626;2024-02-26T12:59:34;14.67;;;8.67;;
60612;SDS011;46443;59.792;17.626;2024-02-26T13:02:00;12.93;;;8.17;;
60612;SDS011;46443;59.792;17.626;2024-02-26T13:04:28;15.23;;;9.93;;
60612;SDS011;46443;59.792;17.626;2024-02-26T13:06:55;17.43;;;9.13;;
60612;SDS011;46443;59.792;17.626;2024-02-26T13:09:25;16.20;;;8.67;;
60612;SDS011;46443;59.792;17.626;2024-02-26T13:11:53;14.53;;;9.13;;
60612;SDS011;46443;59.792;17.626;2024-02-26T13:14:22;17.20;;;9.40;;
60612;SDS011;46443;59.792;17.626;2024-02-26T13:16:57;15.35;;;9.90;;
60612;SDS011;46443;59.792;17.626;2024-02-26T13:19:24;16.33;;;9.63;;
60612;SDS011;46443;59.792;17.626;2024-02-26T13:21:50;15.13;;;9.27;;
60612;SDS011;46443;59.792;17.626;2024-02-26T13:24:16;15.50;;;9.03;;
60612;SDS011;46443;59.792;17.626;2024-02-26T13:26:44;15.13;;;8.93;;
60612;SDS011;46443;59.792;17.626;2024-02-26T13:29:17;16.80;;;8.50;;
60612;SDS011;46443;59.792;17.626;2024-02-26T13:31:43;13.23;;;8.10;;
60612;SDS011;46443;59.792;17.626;2024-02-26T13:34:09;13.83;;;8.10;;
60612;SDS011;46443;59.792;17.626;2024-02-26T13:36:36;14.40;;;8.07;;
60612;SDS011;46443;59.792;17.626;2024-02-26T13:39:02;12.50;;;7.73;;
60612;SDS011;46443;59.792;17.626;2024-02-26T13:41:30;11.77;;;7.47;;
60612;SDS011;46443;59.792;17.626;2024-02-26T13:43:57;13.20;;;7.40;;
60612;SDS011;46443;59.792;17.626;2024-02-26T13:46:23;11.23;;;6.93;;
60612;SDS011;46443;59.792;17.626;2024-02-26T13:48:49;11.67;;;6.43;;
60612;SDS011;46443;59.792;17.626;2024-02-26T13:51:15;13.43;;;7.23;;
60612;SDS011;46443;59.792;17.626;2024-02-26T13:53:42;10.70;;;6.90;;
60612;SDS011;46443;59.792;17.626;2024-02-26T13:56:09;11.77;;;6.53;;
60612;SDS011;46443;59.792;17.626;2024-02-26T13:58:35;11.60;;;6.67;;
60612;SDS011;46443;59.792;17.626;2024-02-26T14:01:02;13.70;;;6.93;;
60612;SDS011;46443;59.792;17.626;2024-02-26T14:03:28;12.13;;;6.50;;
60612;SDS011;46443;59.792;17.626;2024-02-26T14:05:54;9.93;;;6.53;;
60612;SDS011;46443;59.792;17.626;2024-02-26T14:08:22;11.13;;;6.77;;
60612;SDS011;46443;59.792;17.626;2024-02-26T14:10:48;12.83;;;7.27;;
60612;SDS011;46443;59.792;17.626;2024-02-26T14:13:14;13.20;;;6.77;;
60612;SDS011;46443;59.792;17.626;2024-02-26T14:15:40;11.70;;;6.37;;
60612;SDS011;46443;59.792;17.626;2024-02-26T14:18:06;11.37;;;6.73;;
60612;SDS011;46443;59.792;17.626;2024-02-26T14:20:33;8.60;;;5.87;;
60612;SDS011;46443;59.792;17.626;2024-02-26T14:23:00;12.17;;;6.17;;
60612;SDS011;46443;59.792;17.626;2024-02-26T14:25:26;10.97;;;6.37;;
60612;SDS011;46443;59.792;17.626;2024-02-26T14:27:52;9.90;;;6.27;;